LiveATC.Net - Listen to live air traffic control over the Internet!


ICAO: KFWS  IATA: FWS   Airport: Fort Worth Spinks Airport
City: Fort Worth   State/Province: Texas
Country: United States   Continent: North America
KFWS METAR Weather: KFWS 281646Z 17008KT 10SM CLR 15/07 A2999
KFWS ADS-B Flight Tracking (ADSBExchange)
KFWS Flight Activity (FlightAware)
KFWS Airport Info   (iFlightPlanner)
KFWS VFR Sectional Chart   (iFlightPlanner) 
KFWS IFR Low Altitude Chart   (iFlightPlanner) 
KFWS IFR High Altitude Chart   (iFlightPlanner) 

KFWS Ground/Tower
Feed Status: UP   Listeners: 2
Listen in your browser - HTML5 player (in browser, HTML5)
Click here to listen with your own player (launches your MP3 player)
Archive Access: KFWS Ground/Tower
FacilityFrequency
Spinks Ground119.475
Spinks Tower/CTAF124.625

NOTICE

Unauthorized use prohibited. See LiveATC.net Terms of Service


Airport/ARTCC Code
Frequency Search
(e.g., 124.400, 128.75)
Site-wide search
 


Browse Feeds
Top 50 Feeds
HF Oceanic Feeds
Coverage Map
Bad Weather Areas

LiveATC FAQ
Offer LiveATC feed
Contact LiveATC.net
Press Inquiries

LiveATC on iPhone
LiveATC on Android

LiveATC Mobile
(Mobile browser)

ATC Audio Archives
Interesting Recordings

LiveATC Forums


Home Page
About LiveATC.net


Terms of Use
Privacy Policy

AIRMETs/SIGMETs

FAA Airport Status
NAS Status
Arrival Demand


Server Software By:
Icecast.org
Liquidsoap